createdAt,value
2022-10-09T00:01:47.534Z,99849.06
2022-10-09T00:04:49.222Z,99841.97
2022-10-09T00:07:50.944Z,99839.78
2022-10-09T00:10:52.755Z,99854.66
2022-10-09T00:13:55.648Z,99839.59
2022-10-09T00:16:57.366Z,99836.97
2022-10-09T00:19:59.080Z,99829.19
2022-10-09T00:23:00.810Z,99835.88
2022-10-09T00:26:02.586Z,99821.97
2022-10-09T00:29:04.289Z,99821.50
2022-10-09T00:32:05.904Z,99825.97
2022-10-09T00:35:07.788Z,99837.78
2022-10-09T00:38:10.612Z,99824.19
2022-10-09T00:41:19.302Z,99823.59
2022-10-09T00:44:47.470Z,99830.19
2022-10-09T00:47:53.062Z,99825.69
2022-10-09T00:50:58.219Z,99828.59
2022-10-09T00:54:00.241Z,99809.00
2022-10-09T00:57:02.331Z,99813.38
2022-10-09T01:00:08.378Z,99821.97
2022-10-09T01:03:09.997Z,99795.91
2022-10-09T01:06:25.132Z,99807.00
2022-10-09T01:09:55.099Z,99797.44
2022-10-09T01:13:22.273Z,99792.53
2022-10-09T01:16:35.374Z,99783.13
2022-10-09T01:19:45.808Z,99793.41
2022-10-09T01:22:53.325Z,99788.16
2022-10-09T01:26:05.377Z,99787.16
2022-10-09T01:29:10.659Z,99781.75
2022-10-09T01:32:17.305Z,99776.75
2022-10-09T01:35:21.439Z,99764.97
2022-10-09T01:38:24.763Z,99763.28
2022-10-09T01:41:27.293Z,99759.06
2022-10-09T01:44:31.560Z,99763.34
2022-10-09T01:47:33.215Z,99756.97
2022-10-09T01:50:40.647Z,99754.53
2022-10-09T01:53:44.266Z,99752.00
2022-10-09T01:56:49.818Z,99748.81
2022-10-09T01:59:52.603Z,99735.34
2022-10-09T02:02:56.291Z,99727.06
2022-10-09T02:05:58.523Z,99733.84
2022-10-09T02:09:02.293Z,99732.72
2022-10-09T02:12:07.955Z,99734.34
2022-10-09T02:15:10.934Z,99740.22
2022-10-09T02:18:16.874Z,99729.59
2022-10-09T02:21:23.693Z,99733.84
2022-10-09T02:24:25.915Z,99731.31
2022-10-09T02:27:28.887Z,99707.94
2022-10-09T02:30:41.860Z,99721.00
2022-10-09T02:33:43.441Z,99730.19
2022-10-09T02:36:46.099Z,99709.44
2022-10-09T02:39:47.943Z,99718.72
2022-10-09T02:42:49.824Z,99689.38
2022-10-09T02:45:51.776Z,99714.81
2022-10-09T02:48:53.677Z,99713.41
2022-10-09T02:51:56.451Z,99712.13
2022-10-09T02:54:58.148Z,99695.22
2022-10-09T02:57:59.772Z,99704.75
2022-10-09T03:01:01.940Z,99724.00
2022-10-09T03:04:04.228Z,99712.13
2022-10-09T03:07:05.865Z,99714.34
2022-10-09T03:10:07.733Z,99714.53
2022-10-09T03:13:09.403Z,99702.53
2022-10-09T03:16:17.146Z,99703.53
2022-10-09T03:19:18.879Z,99691.06
2022-10-09T03:22:20.598Z,99712.06
2022-10-09T03:25:22.669Z,99692.28
2022-10-09T03:28:24.660Z,99700.44
2022-10-09T03:31:52.332Z,99710.53
2022-10-09T03:34:48.923Z,99692.25
2022-10-09T03:37:50.514Z,99700.22
2022-10-09T03:40:52.185Z,99696.28
2022-10-09T03:43:54.815Z,99693.03
2022-10-09T03:46:56.399Z,99706.97
2022-10-09T03:49:58.084Z,99703.16
2022-10-09T03:52:59.940Z,99703.63
2022-10-09T03:56:01.607Z,99697.25
2022-10-09T03:59:05.646Z,99715.06
2022-10-09T04:02:08.171Z,99701.97
2022-10-09T04:05:09.784Z,99709.88
2022-10-09T04:08:11.960Z,99704.88
2022-10-09T04:11:16.828Z,99686.25
2022-10-09T04:14:18.431Z,99709.16
2022-10-09T04:17:20.150Z,99693.84
2022-10-09T04:20:22.493Z,99694.41
2022-10-09T04:23:26.902Z,99690.78
2022-10-09T04:26:28.727Z,99698.50
2022-10-09T04:29:30.375Z,99685.84
2022-10-09T04:32:32.022Z,99675.31
2022-10-09T04:35:36.615Z,99669.50
2022-10-09T04:38:38.294Z,99651.13
2022-10-09T04:41:49.245Z,99678.00
2022-10-09T04:45:06.543Z,99655.16
2022-10-09T04:48:28.244Z,99676.66
2022-10-09T04:51:44.262Z,99676.94
2022-10-09T04:54:45.999Z,99676.44
2022-10-09T04:57:47.792Z,99663.88
2022-10-09T05:00:52.389Z,99657.03
2022-10-09T05:04:05.063Z,99651.16
2022-10-09T05:07:07.783Z,99669.81
2022-10-09T05:10:12.038Z,99659.38
2022-10-09T05:13:13.634Z,99682.75
2022-10-09T05:16:20.909Z,99694.75
2022-10-09T05:19:22.797Z,99692.84
2022-10-09T05:22:24.842Z,99685.28
2022-10-09T05:25:26.429Z,99683.47
2022-10-09T05:28:28.684Z,99687.53
2022-10-09T05:31:31.786Z,99681.66
2022-10-09T05:34:36.542Z,99681.09
2022-10-09T05:37:38.190Z,99666.75
2022-10-09T05:41:03.623Z,99674.00
2022-10-09T05:44:07.427Z,99674.00
2022-10-09T05:47:09.111Z,99672.63
2022-10-09T05:50:10.686Z,99676.00
2022-10-09T05:53:12.329Z,99670.91
2022-10-09T05:56:14.385Z,99676.50
2022-10-09T05:59:21.916Z,99673.75
2022-10-09T06:02:23.855Z,99676.81
2022-10-09T06:05:25.544Z,99673.91
2022-10-09T06:08:27.603Z,99672.91
2022-10-09T06:11:35.376Z,99675.75
2022-10-09T06:14:36.982Z,99678.00
2022-10-09T06:17:38.593Z,99681.88
2022-10-09T06:20:41.168Z,99672.75
2022-10-09T06:23:44.236Z,99677.84
2022-10-09T06:26:46.104Z,99665.13
2022-10-09T06:29:47.745Z,99680.25
2022-10-09T06:32:49.689Z,99687.34
2022-10-09T06:35:51.540Z,99656.19
2022-10-09T06:38:53.954Z,99677.91
2022-10-09T06:41:55.804Z,99686.69
2022-10-09T06:45:24.324Z,99686.41
2022-10-09T06:48:26.085Z,99684.09
2022-10-09T06:51:29.267Z,99677.63
2022-10-09T06:54:30.879Z,99691.78
2022-10-09T06:57:32.591Z,99677.47
2022-10-09T07:00:34.190Z,99705.72
2022-10-09T07:03:37.121Z,99705.00
2022-10-09T07:06:41.899Z,99699.47
2022-10-09T07:09:43.542Z,99699.53
2022-10-09T07:12:45.104Z,99693.06
2022-10-09T07:15:46.758Z,99691.91
2022-10-09T07:18:49.419Z,99699.00
2022-10-09T07:21:51.101Z,99697.41
2022-10-09T07:24:52.718Z,99655.75
2022-10-09T07:27:54.308Z,99698.75
2022-10-09T07:30:56.764Z,99695.69
2022-10-09T07:33:58.929Z,99695.81
2022-10-09T07:37:00.525Z,99701.84
2022-10-09T07:40:02.278Z,99677.22
2022-10-09T07:43:04.181Z,99685.50
2022-10-09T07:46:07.666Z,99698.03
2022-10-09T07:49:09.412Z,99687.41
2022-10-09T07:52:11.046Z,99693.16
2022-10-09T07:55:12.749Z,99695.88
2022-10-09T07:58:15.594Z,99696.97
2022-10-09T08:01:20.327Z,99684.06
2022-10-09T08:04:22.402Z,99698.72
2022-10-09T08:07:24.094Z,99694.38
2022-10-09T08:10:25.786Z,99693.56
2022-10-09T08:13:27.438Z,99679.03
2022-10-09T08:16:29.504Z,99697.31
2022-10-09T08:19:31.178Z,99694.34
2022-10-09T08:22:39.369Z,99688.59
2022-10-09T08:25:43.836Z,99692.94
2022-10-09T08:28:58.162Z,99686.31
2022-10-09T08:31:59.894Z,99689.50
2022-10-09T08:35:01.659Z,99680.78
2022-10-09T08:38:03.344Z,99678.91
2022-10-09T08:41:08.473Z,99674.84
2022-10-09T08:44:24.234Z,99675.22
2022-10-09T08:47:30.985Z,99674.63
2022-10-09T08:50:38.191Z,99675.44
2022-10-09T08:53:47.401Z,99678.22
2022-10-09T08:56:51.910Z,99677.03
2022-10-09T08:59:53.599Z,99660.72
2022-10-09T09:03:07.498Z,99669.84
2022-10-09T09:06:28.137Z,99664.41
2022-10-09T09:09:53.256Z,99666.97
2022-10-09T09:13:32.588Z,99666.47
2022-10-09T09:17:05.395Z,99656.28
2022-10-09T09:20:25.090Z,99640.22
2022-10-09T09:23:30.361Z,99635.34
2022-10-09T09:26:32.080Z,99634.03
2022-10-09T09:29:41.111Z,99636.81
2022-10-09T09:32:51.955Z,99627.44
2022-10-09T09:35:59.635Z,99633.94
2022-10-09T09:42:23.109Z,99613.63
2022-10-09T09:45:26.706Z,99612.34
2022-10-09T09:48:31.254Z,99605.69
2022-10-09T09:51:35.882Z,99602.47
2022-10-09T09:54:39.310Z,99593.06
2022-10-09T09:57:45.135Z,99591.75
2022-10-09T10:00:55.759Z,99592.09
2022-10-09T10:03:59.910Z,99578.94
2022-10-09T10:07:02.530Z,99578.38
2022-10-09T10:10:09.967Z,99577.50
2022-10-09T10:13:18.184Z,99571.66
2022-10-09T10:16:27.140Z,99572.38
2022-10-09T10:19:31.357Z,99574.53
2022-10-09T10:22:33.430Z,99563.59
2022-10-09T10:25:35.594Z,99566.25
2022-10-09T10:28:47.146Z,99552.75
2022-10-09T10:32:10.858Z,99559.13
2022-10-09T10:35:20.089Z,99539.47
2022-10-09T10:38:54.057Z,99550.78
2022-10-09T10:42:05.911Z,99551.06
2022-10-09T10:45:22.556Z,99541.78
2022-10-09T10:48:32.026Z,99538.31
2022-10-09T10:52:04.219Z,99523.03
2022-10-09T10:55:39.041Z,99532.72
2022-10-09T10:59:18.425Z,99521.25
2022-10-09T11:02:42.044Z,99530.53
2022-10-09T11:06:00.823Z,99523.66
2022-10-09T11:09:12.392Z,99506.78
2022-10-09T11:12:47.869Z,99510.56
2022-10-09T11:16:11.551Z,99497.22
2022-10-09T11:19:25.382Z,99509.78
2022-10-09T11:22:29.958Z,99508.34
2022-10-09T11:25:34.654Z,99497.94
2022-10-09T11:29:00.760Z,99492.38
2022-10-09T11:32:10.980Z,99491.16
2022-10-09T11:35:12.795Z,99497.66
2022-10-09T11:38:26.797Z,99488.34
2022-10-09T11:41:31.006Z,99482.59
2022-10-09T11:44:51.939Z,99477.34
2022-10-09T11:48:10.169Z,99480.03
2022-10-09T11:51:14.447Z,99460.75
2022-10-09T11:54:19.577Z,99454.44
2022-10-09T11:57:29.357Z,99458.75
2022-10-09T12:00:34.335Z,99447.50
2022-10-09T12:03:39.735Z,99435.59
2022-10-09T12:06:56.547Z,99435.56
2022-10-09T12:10:21.656Z,99432.81
2022-10-09T12:13:34.675Z,99413.84
2022-10-09T12:16:45.516Z,99414.22
2022-10-09T12:19:53.859Z,99414.47
2022-10-09T12:23:25.330Z,99399.56
2022-10-09T12:26:25.775Z,99405.13
2022-10-09T12:29:44.483Z,99392.41
2022-10-09T12:32:58.768Z,99388.34
2022-10-09T12:36:06.460Z,99392.38
2022-10-09T12:39:18.972Z,99375.09
2022-10-09T12:42:23.953Z,99369.38
2022-10-09T12:45:30.331Z,99366.72
2022-10-09T12:48:38.863Z,99373.63
2022-10-09T12:51:40.487Z,99368.22
2022-10-09T12:54:44.632Z,99363.81
2022-10-09T12:57:46.451Z,99346.53
2022-10-09T13:00:50.974Z,99346.28
2022-10-09T13:04:05.844Z,99341.13
2022-10-09T13:07:20.067Z,99327.41
2022-10-09T13:10:23.335Z,99330.16
2022-10-09T13:13:27.329Z,99325.81
2022-10-09T13:16:48.762Z,99317.19
2022-10-09T13:19:54.314Z,99318.78
2022-10-09T13:23:01.847Z,99313.66
2022-10-09T13:26:05.801Z,99310.50
2022-10-09T13:29:07.737Z,99307.78
2022-10-09T13:32:12.748Z,99305.81
2022-10-09T13:35:14.430Z,99299.53
2022-10-09T13:38:17.917Z,99289.31
2022-10-09T13:41:23.667Z,99291.66
2022-10-09T13:44:25.902Z,99290.09
2022-10-09T13:47:27.695Z,99278.63
2022-10-09T13:50:29.518Z,99282.13
2022-10-09T13:53:31.271Z,99285.88
2022-10-09T13:56:32.944Z,99283.91
2022-10-09T13:59:34.637Z,99273.16
2022-10-09T14:02:36.625Z,99266.09
2022-10-09T14:05:38.421Z,99267.31
2022-10-09T14:08:42.846Z,99267.31
2022-10-09T14:11:46.758Z,99262.50
2022-10-09T14:14:48.416Z,99243.88
2022-10-09T14:17:50.271Z,99252.28
2022-10-09T14:20:52.277Z,99235.13
2022-10-09T14:23:57.028Z,99240.47
2022-10-09T14:26:58.588Z,99245.72
2022-10-09T14:30:00.388Z,99241.31
2022-10-09T14:33:02.693Z,99240.09
2022-10-09T14:36:15.664Z,99228.31
2022-10-09T14:39:18.070Z,99223.34
2022-10-09T14:42:19.671Z,99214.19
2022-10-09T14:45:21.261Z,99226.03
2022-10-09T14:48:22.845Z,99223.00
2022-10-09T14:51:26.682Z,99220.81
2022-10-09T14:54:28.388Z,99218.25
2022-10-09T14:57:35.203Z,99215.94
2022-10-09T15:00:37.293Z,99206.66
2022-10-09T15:03:38.944Z,99197.94
2022-10-09T15:06:40.656Z,99204.06
2022-10-09T15:09:42.372Z,99204.50
2022-10-09T15:12:44.012Z,99193.59
2022-10-09T15:15:46.378Z,99179.47
2022-10-09T15:18:53.164Z,99187.38
2022-10-09T15:21:54.725Z,99189.75
2022-10-09T15:24:56.941Z,99189.13
2022-10-09T15:28:00.950Z,99182.09
2022-10-09T15:31:03.838Z,99181.31
2022-10-09T15:34:07.681Z,99186.28
2022-10-09T15:37:09.311Z,99170.25
2022-10-09T15:40:11.133Z,99178.59
2022-10-09T15:43:14.160Z,99176.59
2022-10-09T15:46:16.222Z,99177.72
2022-10-09T15:49:18.124Z,99175.69
2022-10-09T15:52:19.830Z,99167.09
2022-10-09T15:55:21.447Z,99167.03
2022-10-09T15:58:23.032Z,99168.41
2022-10-09T16:01:25.414Z,99169.88
2022-10-09T16:04:28.114Z,99167.88
2022-10-09T16:07:29.983Z,99140.72
2022-10-09T16:10:32.184Z,99165.59
2022-10-09T16:13:37.925Z,99165.84
2022-10-09T16:16:39.528Z,99159.09
2022-10-09T16:19:41.243Z,99167.97
2022-10-09T16:22:42.889Z,99154.88
2022-10-09T16:25:44.749Z,99158.19
2022-10-09T16:28:47.090Z,99166.84
2022-10-09T16:31:48.754Z,99162.19
2022-10-09T16:34:50.358Z,99167.50
2022-10-09T16:37:52.593Z,99173.97
2022-10-09T16:41:01.929Z,99170.00
2022-10-09T16:44:12.432Z,99173.47
2022-10-09T16:47:14.973Z,99170.03
2022-10-09T16:50:16.625Z,99176.13
2022-10-09T16:53:18.217Z,99171.22
2022-10-09T16:56:22.996Z,99167.03
2022-10-09T16:59:24.605Z,99174.72
2022-10-09T17:02:26.265Z,99173.72
2022-10-09T17:05:27.887Z,99168.78
2022-10-09T17:08:30.175Z,99178.72
2022-10-09T17:11:32.418Z,99180.13
2022-10-09T17:14:35.615Z,99187.81
2022-10-09T17:17:38.531Z,99175.81
2022-10-09T17:20:40.594Z,99188.97
2022-10-09T17:23:43.428Z,99193.41
2022-10-09T17:26:45.399Z,99186.66
2022-10-09T17:29:46.986Z,99186.81
2022-10-09T17:32:48.941Z,99179.13
2022-10-09T17:35:50.784Z,99184.47
2022-10-09T17:38:53.137Z,99190.63
2022-10-09T17:41:54.722Z,99183.25
2022-10-09T17:44:56.366Z,99185.69
2022-10-09T17:47:58.002Z,99174.81
2022-10-09T17:51:01.765Z,99178.22
2022-10-09T17:54:12.026Z,99188.16
2022-10-09T17:57:15.554Z,99191.50
2022-10-09T18:00:21.833Z,99175.00
2022-10-09T18:03:25.709Z,99176.84
2022-10-09T18:06:30.736Z,99176.75
2022-10-09T18:09:32.686Z,99162.84
2022-10-09T18:12:34.318Z,99181.16
2022-10-09T18:15:59.318Z,99183.44
2022-10-09T18:19:02.864Z,99190.41
2022-10-09T18:22:04.740Z,99167.56
2022-10-09T18:25:14.391Z,99183.28
2022-10-09T18:28:16.500Z,99171.53
2022-10-09T18:31:20.874Z,99176.63
2022-10-09T18:34:23.523Z,99181.63
2022-10-09T18:37:25.587Z,99172.59
2022-10-09T18:40:28.170Z,99173.38
2022-10-09T18:43:31.146Z,99166.03
2022-10-09T18:46:43.072Z,99174.78
2022-10-09T18:49:49.148Z,99171.63
2022-10-09T18:52:51.570Z,99165.19
2022-10-09T18:56:01.559Z,99163.78
2022-10-09T18:59:17.961Z,99152.09
2022-10-09T19:02:23.610Z,99149.03
2022-10-09T19:05:28.976Z,99163.94
2022-10-09T19:08:31.662Z,99159.47
2022-10-09T19:11:36.691Z,99137.97
2022-10-09T19:15:05.238Z,99161.88
2022-10-09T19:18:10.256Z,99178.00
2022-10-09T19:21:16.213Z,99183.59
2022-10-09T19:24:20.049Z,99148.13
2022-10-09T19:27:27.985Z,99190.81
2022-10-09T19:30:30.385Z,99144.47
2022-10-09T19:33:39.159Z,99170.81
2022-10-09T19:36:43.651Z,99145.38
2022-10-09T19:39:57.895Z,99171.38
2022-10-09T19:46:31.675Z,99155.56
2022-10-09T19:50:05.374Z,99182.72
2022-10-09T19:56:27.304Z,99179.66
2022-10-09T19:59:35.903Z,99144.75
2022-10-09T20:02:53.362Z,99145.47
2022-10-09T20:09:48.553Z,99118.09
2022-10-09T20:12:56.487Z,99166.63
2022-10-09T20:16:04.441Z,99098.78
2022-10-09T20:19:07.614Z,99100.59
2022-10-09T20:22:14.007Z,99124.19
2022-10-09T20:25:50.944Z,99177.53
2022-10-09T20:28:54.487Z,99118.03
2022-10-09T20:32:07.089Z,99114.56
2022-10-09T20:35:13.531Z,99140.75
2022-10-09T20:38:25.906Z,99145.59
2022-10-09T20:42:00.357Z,99168.19
2022-10-09T20:45:16.835Z,99111.72
2022-10-09T20:48:32.443Z,99107.66
2022-10-09T20:51:41.008Z,99125.06
2022-10-09T20:54:46.510Z,99151.84
2022-10-09T20:57:56.564Z,99154.66
2022-10-09T21:01:30.978Z,99169.13
2022-10-09T21:04:43.050Z,99153.88
2022-10-09T21:07:58.944Z,99152.66
2022-10-09T21:11:14.171Z,99114.00
2022-10-09T21:14:23.812Z,99169.47
2022-10-09T21:17:29.706Z,99117.28
2022-10-09T21:20:57.957Z,99135.69
2022-10-09T21:24:06.780Z,99160.31
2022-10-09T21:27:10.207Z,99112.06
2022-10-09T21:30:21.326Z,99122.91
2022-10-09T21:33:41.451Z,99186.66
2022-10-09T21:41:01.221Z,99127.75
2022-10-09T21:45:17.884Z,99111.25
2022-10-09T21:48:29.169Z,99185.03
2022-10-09T21:51:50.801Z,99157.56
2022-10-09T21:55:20.376Z,99105.00
2022-10-09T21:58:25.313Z,99131.69
2022-10-09T22:01:36.347Z,99161.03
2022-10-09T22:04:47.219Z,99147.41
2022-10-09T22:07:49.155Z,99174.53
2022-10-09T22:11:19.912Z,99158.78
2022-10-09T22:14:37.138Z,99183.66
2022-10-09T22:17:40.351Z,99120.38
2022-10-09T22:20:46.894Z,99189.69
2022-10-09T22:23:52.349Z,99176.00
2022-10-09T22:26:58.201Z,99190.66
2022-10-09T22:33:27.931Z,99155.50
2022-10-09T22:36:37.809Z,99120.16
2022-10-09T22:39:43.042Z,99150.22
2022-10-09T22:42:45.471Z,99135.78
2022-10-09T22:45:53.493Z,99136.97
2022-10-09T22:48:56.178Z,99119.56
2022-10-09T22:51:58.296Z,99136.19
2022-10-09T22:55:06.065Z,99097.94
2022-10-09T22:58:13.305Z,99169.03
2022-10-09T23:01:41.196Z,99147.22
2022-10-09T23:04:45.626Z,99121.81
2022-10-09T23:07:47.560Z,99120.09
2022-10-09T23:10:50.322Z,99163.28
2022-10-09T23:14:00.035Z,99115.16
2022-10-09T23:17:11.227Z,99107.16
2022-10-09T23:20:19.886Z,99098.25
2022-10-09T23:23:50.421Z,99131.47
2022-10-09T23:27:21.674Z,99115.41
2022-10-09T23:30:26.645Z,99116.41
2022-10-09T23:33:35.126Z,99099.25
2022-10-09T23:36:59.718Z,99125.97
2022-10-09T23:40:01.893Z,99148.03
2022-10-09T23:43:12.365Z,99134.91
2022-10-09T23:46:30.234Z,99094.00
2022-10-09T23:49:43.684Z,99126.25
2022-10-09T23:52:51.041Z,99119.41
2022-10-09T23:55:54.386Z,99143.38
2022-10-09T23:59:19.124Z,99087.00
